Time;durP1;ratioP1;P1;durP2;ratioP2;P2;SDS_P1;SDS_P2;PMS_P1;PMS_P2;Temp;Humidity;BMP_temperature;BMP_pressure;BME280_temperature;BME280_humidity;BME280_pressure;Samples;Min_cycle;Max_cycle;Signal;HPM_P1;HPM_P2
2023/05/03 00:00:41;;;;;;;4.17;2.60;;;11.40;66.40;;;;;;5022914;28;20202;-69
2023/05/03 00:03:08;;;;;;;3.47;2.53;;;11.40;66.30;;;;;;5024624;28;20300;-68
2023/05/03 00:05:36;;;;;;;4.13;2.80;;;11.40;66.30;;;;;;5025329;28;20203;-68
2023/05/03 00:08:03;;;;;;;3.47;2.47;;;11.40;66.30;;;;;;5024906;28;20201;-68
2023/05/03 00:10:30;;;;;;;4.33;3.07;;;11.40;66.40;;;;;;5033006;28;20284;-68
2023/05/03 00:12:57;;;;;;;4.03;3.30;;;11.40;66.30;;;;;;5032990;28;20210;-68
2023/05/03 00:15:24;;;;;;;3.47;2.60;;;11.40;66.30;;;;;;5031702;28;20206;-68
2023/05/03 00:17:53;;;;;;;2.57;2.30;;;11.50;66.20;;;;;;5030518;28;20289;-69
2023/05/03 00:20:21;;;;;;;3.43;2.60;;;11.50;66.20;;;;;;5033165;28;20210;-68
2023/05/03 00:22:48;;;;;;;4.23;3.03;;;11.50;66.20;;;;;;5032877;28;20662;-68
2023/05/03 00:25:15;;;;;;;4.80;2.67;;;11.50;66.10;;;;;;5033009;28;20201;-68
2023/05/03 00:27:42;;;;;;;3.03;2.50;;;11.40;66.00;;;;;;5032258;28;20194;-68
2023/05/03 00:30:10;;;;;;;3.27;2.57;;;11.40;66.00;;;;;;5032325;28;20291;-68
2023/05/03 00:32:37;;;;;;;4.00;2.37;;;11.40;66.00;;;;;;5024275;28;20251;-68
2023/05/03 00:35:07;;;;;;;2.60;2.17;;;11.40;66.10;;;;;;5033182;28;20190;-68
2023/05/03 00:37:35;;;;;;;3.00;2.20;;;11.30;66.00;;;;;;5031889;28;20252;-67
2023/05/03 00:40:03;;;;;;;2.80;2.33;;;11.30;66.00;;;;;;5033187;28;20198;-68
2023/05/03 00:42:30;;;;;;;2.27;2.03;;;11.20;66.10;;;;;;5032355;28;20657;-67
2023/05/03 00:44:57;;;;;;;3.33;2.87;;;11.30;66.20;;;;;;5014844;28;20201;-67
2023/05/03 00:47:24;;;;;;;7.03;3.73;;;11.30;66.10;;;;;;5014553;28;20210;-68
2023/05/03 00:49:52;;;;;;;6.83;3.40;;;11.30;65.90;;;;;;5015723;28;20309;-68
2023/05/03 00:52:20;;;;;;;7.00;4.20;;;11.30;65.70;;;;;;5031371;28;20535;-68
2023/05/03 00:54:47;;;;;;;6.80;3.60;;;11.30;65.70;;;;;;5032455;28;20262;-69
2023/05/03 00:57:15;;;;;;;5.87;3.60;;;11.30;65.60;;;;;;5032778;28;20666;-68
2023/05/03 00:59:42;;;;;;;8.17;4.47;;;11.20;65.50;;;;;;5031544;28;20191;-67
2023/05/03 01:02:09;;;;;;;7.10;4.40;;;11.20;65.70;;;;;;5030918;28;20544;-68
2023/05/03 01:04:37;;;;;;;6.67;4.53;;;11.20;65.80;;;;;;5014589;28;20264;-67
2023/05/03 01:07:15;;;;;;;8.77;4.63;;;11.20;65.80;;;;;;5014703;28;20213;-68
2023/05/03 01:09:53;;;;;;;7.43;4.10;;;11.20;65.80;;;;;;5032460;28;20248;-68
2023/05/03 01:12:30;;;;;;;5.30;3.70;;;11.10;65.60;;;;;;5032642;28;20233;-68
2023/05/03 01:15:06;;;;;;;8.07;4.30;;;11.00;65.60;;;;;;5029074;28;20194;-67
2023/05/03 01:17:39;;;;;;;4.67;3.43;;;11.00;65.70;;;;;;5013120;28;20229;-67
2023/05/03 01:20:10;;;;;;;7.13;4.00;;;11.00;65.90;;;;;;5032397;28;20217;-67
2023/05/03 01:22:49;;;;;;;6.93;4.00;;;11.00;65.90;;;;;;5009597;28;20229;-67
2023/05/03 01:25:17;;;;;;;5.87;3.63;;;11.00;65.90;;;;;;5010844;28;20202;-68
2023/05/03 01:27:44;;;;;;;6.27;3.97;;;11.00;65.90;;;;;;5024764;28;20276;-67
2023/05/03 01:30:13;;;;;;;5.63;3.83;;;10.90;65.90;;;;;;5031803;28;20219;-67
2023/05/03 01:32:55;;;;;;;5.60;3.47;;;10.80;66.70;;;;;;5007634;28;20202;-67
2023/05/03 01:35:29;;;;;;;6.03;4.03;;;10.80;66.20;;;;;;5029574;28;20607;-67
2023/05/03 01:37:58;;;;;;;6.07;3.60;;;10.80;66.40;;;;;;5031470;28;20184;-67
2023/05/03 01:40:30;;;;;;;5.70;3.37;;;10.80;66.40;;;;;;5031843;28;20198;-67
2023/05/03 01:42:59;;;;;;;6.33;4.17;;;10.80;66.40;;;;;;5032066;28;20251;-67
2023/05/03 01:45:26;;;;;;;6.07;3.70;;;10.80;66.50;;;;;;5029590;28;20211;-68
2023/05/03 01:47:56;;;;;;;3.67;3.00;;;10.80;66.60;;;;;;5013842;28;20200;-67
2023/05/03 01:50:23;;;;;;;5.00;3.40;;;10.80;66.50;;;;;;5028109;28;20219;-68
2023/05/03 01:52:51;;;;;;;4.33;3.40;;;10.70;66.50;;;;;;5014793;28;20210;-67
2023/05/03 01:55:18;;;;;;;4.30;3.43;;;10.70;66.70;;;;;;5015760;28;20303;-68
2023/05/03 01:57:47;;;;;;;5.30;3.33;;;10.70;66.60;;;;;;5012957;28;20210;-67
2023/05/03 02:00:15;;;;;;;6.43;3.90;;;10.60;66.60;;;;;;5010562;28;20204;-67
2023/05/03 02:02:42;;;;;;;5.40;3.60;;;10.50;66.70;;;;;;5029821;28;20229;-68
2023/05/03 02:05:10;;;;;;;4.70;3.37;;;10.60;66.70;;;;;;5030849;28;20198;-68
2023/05/03 02:07:38;;;;;;;5.50;4.00;;;10.60;66.70;;;;;;5029413;28;20684;-68
2023/05/03 02:10:05;;;;;;;4.40;3.23;;;10.50;66.80;;;;;;5026059;28;20211;-68
2023/05/03 02:12:32;;;;;;;3.30;3.00;;;10.50;67.00;;;;;;5030273;28;20215;-67
2023/05/03 02:15:01;;;;;;;4.77;3.23;;;10.50;67.00;;;;;;5013135;28;20201;-68
2023/05/03 02:17:28;;;;;;;3.13;2.77;;;10.50;67.00;;;;;;5030820;28;20212;-67
2023/05/03 02:19:55;;;;;;;4.30;3.03;;;10.40;66.90;;;;;;5031116;28;20708;-67
2023/05/03 02:22:22;;;;;;;4.33;2.80;;;10.40;67.10;;;;;;5030677;28;20254;-68
2023/05/03 02:24:49;;;;;;;4.57;3.10;;;10.40;67.20;;;;;;5031601;28;20657;-67
2023/05/03 02:27:17;;;;;;;3.20;2.70;;;10.40;67.10;;;;;;5030681;28;20260;-68
2023/05/03 02:29:44;;;;;;;4.33;2.73;;;10.40;67.20;;;;;;5023726;28;20368;-67
2023/05/03 02:32:13;;;;;;;3.93;2.90;;;10.40;67.20;;;;;;5024217;28;20200;-67
2023/05/03 02:34:40;;;;;;;4.00;2.70;;;10.40;67.10;;;;;;5030240;28;20184;-67
2023/05/03 02:37:10;;;;;;;3.37;2.60;;;10.50;67.20;;;;;;5008495;28;20206;-67
2023/05/03 02:39:38;;;;;;;2.77;2.53;;;10.50;67.30;;;;;;5018215;28;20691;-66
2023/05/03 02:42:06;;;;;;;4.23;2.47;;;10.40;67.30;;;;;;5021369;28;20198;-66
2023/05/03 02:44:33;;;;;;;2.40;2.10;;;10.40;67.40;;;;;;5012056;28;20625;-67
2023/05/03 02:47:00;;;;;;;2.33;2.13;;;10.40;67.90;;;;;;5025725;28;20202;-66
2023/05/03 02:49:29;;;;;;;5.50;3.10;;;10.30;67.50;;;;;;5004783;28;20211;-67
2023/05/03 02:51:56;;;;;;;3.97;3.13;;;10.30;67.50;;;;;;5009914;28;20207;-67
2023/05/03 02:54:24;;;;;;;3.93;3.23;;;10.40;67.70;;;;;;5011359;28;20203;-67
2023/05/03 02:56:51;;;;;;;4.27;2.60;;;10.30;67.70;;;;;;5012928;28;20216;-67
2023/05/03 02:59:19;;;;;;;6.97;2.93;;;10.30;67.70;;;;;;5027730;28;20194;-67
2023/05/03 03:01:46;;;;;;;5.27;2.97;;;10.30;67.70;;;;;;5029172;28;20191;-68
2023/05/03 03:04:15;;;;;;;4.37;2.57;;;10.20;67.80;;;;;;5010327;28;20435;-67
2023/05/03 03:06:43;;;;;;;5.47;3.17;;;10.20;67.90;;;;;;5030646;28;20288;-68
2023/05/03 03:09:11;;;;;;;4.87;3.43;;;10.10;68.00;;;;;;5030385;28;20216;-67
2023/05/03 03:11:38;;;;;;;3.93;2.87;;;10.00;68.10;;;;;;5029304;28;20231;-67
2023/05/03 03:14:05;;;;;;;5.97;3.97;;;10.00;68.30;;;;;;5012684;28;20202;-66
2023/05/03 03:16:32;;;;;;;5.47;3.63;;;10.00;68.50;;;;;;5011262;28;20612;-66
2023/05/03 03:18:59;;;;;;;4.23;3.20;;;9.90;69.70;;;;;;5011779;28;20715;-67
2023/05/03 03:21:27;;;;;;;5.63;2.80;;;10.00;68.60;;;;;;5012415;28;20259;-66
2023/05/03 03:23:56;;;;;;;5.67;2.90;;;10.00;68.50;;;;;;5012435;28;20570;-68
2023/05/03 03:26:23;;;;;;;3.87;2.80;;;10.00;68.70;;;;;;5028879;28;20264;-67
2023/05/03 03:28:51;;;;;;;4.10;3.10;;;10.00;68.50;;;;;;5018470;28;20203;-67
2023/05/03 03:31:21;;;;;;;4.27;3.13;;;10.10;68.60;;;;;;5011521;28;20219;-67
2023/05/03 03:33:49;;;;;;;7.73;3.03;;;10.00;68.50;;;;;;5010901;28;20586;-67
2023/05/03 03:36:19;;;;;;;3.93;2.80;;;10.10;68.70;;;;;;5012372;28;20195;-67
2023/05/03 03:38:48;;;;;;;3.13;2.17;;;10.00;68.70;;;;;;5011921;28;20210;-67
2023/05/03 03:41:17;;;;;;;3.30;2.87;;;10.00;68.70;;;;;;5011901;28;20625;-67
2023/05/03 03:43:45;;;;;;;4.50;2.93;;;10.10;69.00;;;;;;5030323;28;20582;-67
2023/05/03 03:46:17;;;;;;;4.07;2.90;;;10.10;69.10;;;;;;5010677;28;20213;-66
2023/05/03 03:48:44;;;;;;;7.07;3.37;;;10.10;69.10;;;;;;5028387;28;20193;-67
2023/05/03 03:51:11;;;;;;;4.13;2.60;;;10.10;69.20;;;;;;5011167;28;20499;-67
2023/05/03 03:53:44;;;;;;;3.17;2.40;;;10.10;69.30;;;;;;5009139;28;20204;-67
2023/05/03 03:56:12;;;;;;;3.37;2.90;;;10.10;69.20;;;;;;5011080;28;20218;-68
2023/05/03 03:58:42;;;;;;;5.30;3.10;;;10.20;69.50;;;;;;5011797;28;20213;-68
2023/05/03 04:01:11;;;;;;;4.03;2.80;;;10.20;69.60;;;;;;5009502;28;20556;-67
2023/05/03 04:03:39;;;;;;;5.97;3.20;;;10.20;69.60;;;;;;5010310;28;20702;-68
2023/05/03 04:06:07;;;;;;;5.90;3.43;;;10.20;69.80;;;;;;5011956;28;20214;-67
2023/05/03 04:08:34;;;;;;;2.97;2.53;;;10.20;69.90;;;;;;5027574;28;20200;-67
2023/05/03 04:11:02;;;;;;;7.43;3.77;;;10.30;70.00;;;;;;5013082;28;20225;-66
2023/05/03 04:13:34;;;;;;;4.50;2.70;;;10.30;70.20;;;;;;5012207;28;20278;-67
2023/05/03 04:16:03;;;;;;;3.87;3.30;;;10.30;70.40;;;;;;5011051;28;20212;-67
2023/05/03 04:18:30;;;;;;;4.57;2.70;;;10.30;70.50;;;;;;5028418;28;20206;-67
2023/05/03 04:20:58;;;;;;;4.47;3.10;;;10.30;70.50;;;;;;5012744;28;20192;-67
2023/05/03 04:23:27;;;;;;;6.13;3.30;;;10.40;70.80;;;;;;5011647;28;20207;-67
2023/05/03 04:25:55;;;;;;;4.40;2.80;;;10.40;70.90;;;;;;5029437;28;20265;-67
2023/05/03 04:28:24;;;;;;;4.83;2.43;;;10.40;70.90;;;;;;5010504;28;20209;-67
2023/05/03 04:30:52;;;;;;;4.07;2.20;;;10.50;70.90;;;;;;5010126;28;20313;-67
2023/05/03 04:33:28;;;;;;;6.03;2.13;;;10.60;71.00;;;;;;5008978;28;20261;-67
2023/05/03 04:35:58;;;;;;;2.10;1.90;;;10.60;71.20;;;;;;5010929;28;20618;-67
2023/05/03 04:38:27;;;;;;;1.47;1.30;;;10.70;71.30;;;;;;5012054;28;20220;-67
2023/05/03 04:40:55;;;;;;;1.67;1.40;;;10.70;71.20;;;;;;5016429;28;20200;-67
2023/05/03 04:43:23;;;;;;;1.90;1.63;;;10.70;71.30;;;;;;5016124;28;20208;-67
2023/05/03 04:45:52;;;;;;;1.87;1.40;;;10.80;71.50;;;;;;5028950;28;20257;-67
2023/05/03 04:48:25;;;;;;;2.43;1.70;;;10.90;71.60;;;;;;5010895;28;20205;-67
2023/05/03 04:50:52;;;;;;;1.40;1.30;;;11.00;71.60;;;;;;5012289;28;20316;-67
2023/05/03 04:53:20;;;;;;;2.10;1.30;;;11.00;71.70;;;;;;5017002;28;20200;-67
2023/05/03 04:55:54;;;;;;;1.37;1.20;;;11.10;71.80;;;;;;5015045;28;20236;-66
2023/05/03 04:58:21;;;;;;;1.27;1.00;;;11.10;71.80;;;;;;5012239;28;20218;-66
2023/05/03 05:00:49;;;;;;;2.20;0.90;;;11.20;71.80;;;;;;5011650;28;20201;-67
2023/05/03 05:03:25;;;;;;;2.60;1.50;;;11.30;71.70;;;;;;5010500;28;20247;-67
2023/05/03 05:05:53;;;;;;;1.80;1.40;;;11.20;71.60;;;;;;5014743;28;20220;-67
2023/05/03 05:08:21;;;;;;;1.63;1.30;;;11.30;71.50;;;;;;5011396;28;20226;-67
2023/05/03 05:10:52;;;;;;;1.90;1.47;;;11.30;71.40;;;;;;5013387;28;20242;-67
2023/05/03 05:13:23;;;;;;;2.17;1.40;;;11.30;71.40;;;;;;5016846;28;20195;-67
2023/05/03 05:15:51;;;;;;;2.00;1.40;;;11.30;71.40;;;;;;5031535;28;20195;-67
2023/05/03 05:18:18;;;;;;;1.20;1.10;;;11.30;71.50;;;;;;5013358;28;20264;-67
2023/05/03 05:20:47;;;;;;;2.77;1.70;;;11.30;71.40;;;;;;5015691;28;20205;-67
2023/05/03 05:23:15;;;;;;;1.67;1.20;;;11.40;71.50;;;;;;5013967;28;20249;-67
2023/05/03 05:25:45;;;;;;;3.50;1.40;;;11.30;71.40;;;;;;5013883;28;20214;-67
2023/05/03 05:28:12;;;;;;;1.07;0.97;;;11.40;71.40;;;;;;5029913;28;20203;-67
2023/05/03 05:30:40;;;;;;;2.27;1.00;;;11.40;71.30;;;;;;5021544;28;20225;-67
2023/05/03 05:33:08;;;;;;;2.20;1.30;;;11.40;71.30;;;;;;5028562;28;20206;-67
2023/05/03 05:35:35;;;;;;;2.43;1.07;;;11.50;71.50;;;;;;5022722;28;20206;-67
2023/05/03 05:38:06;;;;;;;1.20;1.10;;;11.50;71.30;;;;;;5029960;28;20201;-67
2023/05/03 05:40:34;;;;;;;1.37;1.23;;;11.50;71.30;;;;;;5020933;28;20222;-68
2023/05/03 05:43:02;;;;;;;1.77;1.27;;;11.60;71.10;;;;;;5020967;28;20252;-67
2023/05/03 05:45:31;;;;;;;1.23;1.17;;;11.60;70.90;;;;;;5015844;28;20311;-68
2023/05/03 05:47:58;;;;;;;1.07;0.90;;;11.60;70.90;;;;;;5026644;28;20613;-67
2023/05/03 05:50:26;;;;;;;1.03;0.80;;;11.70;70.90;;;;;;5024914;28;20218;-67
2023/05/03 05:52:58;;;;;;;1.33;1.23;;;11.70;70.90;;;;;;5022508;28;20209;-67
2023/05/03 05:55:31;;;;;;;1.00;1.00;;;11.80;70.90;;;;;;5017720;28;20208;-67
2023/05/03 05:58:00;;;;;;;1.80;1.23;;;11.80;70.60;;;;;;5024048;28;20207;-67
2023/05/03 06:00:35;;;;;;;0.80;0.80;;;11.90;71.20;;;;;;5015897;28;20220;-67
2023/05/03 06:03:02;;;;;;;0.87;0.87;;;12.00;70.40;;;;;;5012507;28;20336;-66
2023/05/03 06:05:29;;;;;;;0.77;0.77;;;12.00;70.10;;;;;;5020902;28;20194;-67
2023/05/03 06:07:56;;;;;;;1.27;1.00;;;12.10;69.90;;;;;;5031029;28;20244;-66
2023/05/03 06:10:23;;;;;;;2.20;1.30;;;12.10;69.60;;;;;;5031282;28;20258;-66
2023/05/03 06:12:54;;;;;;;1.10;1.00;;;11.60;68.70;;;;;;5012431;28;20206;-68
2023/05/03 06:15:24;;;;;;;0.90;0.90;;;12.20;69.00;;;;;;5012695;28;20653;-67
2023/05/03 06:17:52;;;;;;;0.70;0.70;;;12.30;69.00;;;;;;5029857;28;20700;-67
2023/05/03 06:20:19;;;;;;;0.60;0.60;;;12.30;68.70;;;;;;5013418;28;20294;-67
2023/05/03 06:22:48;;;;;;;0.83;0.83;;;12.40;68.70;;;;;;5010294;28;20550;-68
2023/05/03 06:25:16;;;;;;;1.10;1.10;;;12.50;68.30;;;;;;5012794;28;20194;-68
2023/05/03 06:27:44;;;;;;;1.97;1.10;;;12.50;68.00;;;;;;5012565;28;20217;-67
2023/05/03 06:30:14;;;;;;;1.27;1.10;;;12.60;67.40;;;;;;5013363;28;20622;-67
2023/05/03 06:32:42;;;;;;;1.10;0.90;;;12.70;67.30;;;;;;5012427;28;20618;-67
2023/05/03 06:35:11;;;;;;;1.60;1.00;;;12.70;66.90;;;;;;5012766;28;20329;-67
2023/05/03 06:37:42;;;;;;;1.07;0.90;;;12.70;66.70;;;;;;5012047;28;20194;-67
2023/05/03 06:40:10;;;;;;;0.83;0.83;;;12.80;66.50;;;;;;5027951;28;20213;-67
2023/05/03 06:42:37;;;;;;;0.80;0.80;;;12.90;66.40;;;;;;5027022;28;20222;-67
2023/05/03 06:45:20;;;;;;;1.00;0.93;;;13.00;66.30;;;;;;5023604;28;20218;-67
2023/05/03 06:47:48;;;;;;;0.70;0.70;;;13.10;66.00;;;;;;5023587;28;20630;-67
2023/05/03 06:50:18;;;;;;;0.83;0.83;;;13.20;65.60;;;;;;5010812;28;20608;-67
2023/05/03 06:52:45;;;;;;;0.60;0.60;;;13.30;65.40;;;;;;5030655;28;20193;-67
2023/05/03 06:55:12;;;;;;;0.63;0.60;;;13.30;65.10;;;;;;5028572;28;20233;-67
2023/05/03 06:57:42;;;;;;;0.60;0.60;;;13.40;64.90;;;;;;5029282;28;20226;-66
2023/05/03 07:00:11;;;;;;;1.23;0.90;;;13.50;64.50;;;;;;5026357;28;20651;-67
2023/05/03 07:02:39;;;;;;;1.07;0.73;;;13.60;63.90;;;;;;5011932;28;20209;-67
2023/05/03 07:05:07;;;;;;;0.70;0.70;;;13.70;64.40;;;;;;5028566;28;20201;-66
2023/05/03 07:07:34;;;;;;;0.60;0.60;;;13.80;63.30;;;;;;5029516;28;20204;-67
2023/05/03 07:10:01;;;;;;;0.77;0.70;;;13.90;63.10;;;;;;5027057;28;20242;-67
2023/05/03 07:12:28;;;;;;;0.60;0.60;;;14.00;62.90;;;;;;5024453;28;20208;-66
2023/05/03 07:14:56;;;;;;;0.63;0.63;;;14.00;62.60;;;;;;5027072;28;20204;-67
2023/05/03 07:17:23;;;;;;;0.70;0.70;;;14.10;62.10;;;;;;5027089;28;20542;-67
2023/05/03 07:19:52;;;;;;;1.30;0.90;;;14.20;61.80;;;;;;5027737;28;20246;-67
2023/05/03 07:22:23;;;;;;;0.60;0.60;;;14.30;61.10;;;;;;5028183;28;20196;-67
2023/05/03 07:24:50;;;;;;;0.50;0.50;;;14.30;60.90;;;;;;5028148;28;20196;-68
2023/05/03 07:27:17;;;;;;;1.33;0.70;;;14.30;60.90;;;;;;5028052;28;20211;-68
2023/05/03 07:29:44;;;;;;;0.60;0.60;;;14.30;60.70;;;;;;5029620;28;20700;-68
2023/05/03 07:32:12;;;;;;;0.70;0.70;;;14.40;60.60;;;;;;5009149;28;20287;-67
2023/05/03 07:34:39;;;;;;;1.43;0.93;;;14.60;60.60;;;;;;5029712;28;20196;-67
2023/05/03 07:37:07;;;;;;;0.63;0.63;;;14.70;59.00;;;;;;5028784;28;20200;-67
2023/05/03 07:39:35;;;;;;;0.60;0.60;;;14.80;58.90;;;;;;5029304;28;20282;-67
2023/05/03 07:42:02;;;;;;;0.70;0.70;;;14.80;58.60;;;;;;5028616;28;20208;-67
2023/05/03 07:44:29;;;;;;;0.80;0.63;;;14.90;58.40;;;;;;5028562;28;20205;-67
2023/05/03 07:46:56;;;;;;;0.60;0.60;;;14.90;57.50;;;;;;5025682;28;20657;-69
2023/05/03 07:49:23;;;;;;;0.97;0.70;;;15.70;57.70;;;;;;5021788;28;20684;-69
2023/05/03 07:51:51;;;;;;;0.67;0.67;;;15.20;57.30;;;;;;5023940;28;20330;-69
2023/05/03 07:54:19;;;;;;;0.60;0.60;;;15.30;57.10;;;;;;5023986;28;20577;-68
2023/05/03 07:56:46;;;;;;;0.73;0.50;;;15.30;56.40;;;;;;5026587;28;20264;-69
2023/05/03 07:59:14;;;;;;;1.00;0.60;;;15.40;56.60;;;;;;5026835;28;20740;-68
2023/05/03 08:01:41;;;;;;;0.70;0.70;;;15.50;56.50;;;;;;5011408;28;20205;-68
2023/05/03 08:04:08;;;;;;;0.70;0.70;;;15.60;56.20;;;;;;5023946;28;20713;-67
2023/05/03 08:06:37;;;;;;;0.50;0.50;;;15.80;55.40;;;;;;5026221;28;20611;-68
2023/05/03 08:09:04;;;;;;;0.30;0.30;;;15.80;55.10;;;;;;5025925;28;20653;-68
2023/05/03 08:11:33;;;;;;;0.40;0.40;;;15.90;55.00;;;;;;5025773;28;20217;-68
2023/05/03 08:14:00;;;;;;;0.40;0.40;;;15.90;54.50;;;;;;5029680;28;20870;-67
2023/05/03 08:16:27;;;;;;;0.60;0.60;;;16.00;54.30;;;;;;5030987;28;20194;-67
2023/05/03 08:18:54;;;;;;;1.20;0.67;;;16.10;53.20;;;;;;5031847;28;20205;-66
2023/05/03 08:21:23;;;;;;;0.47;0.40;;;16.20;52.90;;;;;;5029292;28;20542;-69
2023/05/03 08:23:50;;;;;;;0.30;0.30;;;16.30;52.70;;;;;;5027308;28;20233;-68
2023/05/03 08:26:17;;;;;;;0.30;0.30;;;16.30;52.70;;;;;;5027150;28;20670;-69
2023/05/03 08:28:46;;;;;;;0.43;0.43;;;16.40;52.70;;;;;;5033874;28;20629;-68
2023/05/03 08:31:13;;;;;;;0.57;0.57;;;16.50;52.60;;;;;;5032052;28;20612;-68
2023/05/03 08:33:40;;;;;;;0.50;0.50;;;16.50;52.10;;;;;;5031852;28;20209;-68
2023/05/03 08:36:08;;;;;;;0.50;0.50;;;16.60;52.00;;;;;;5033258;28;20336;-67
2023/05/03 08:38:39;;;;;;;0.50;0.50;;;16.60;51.70;;;;;;5033683;28;20286;-67
2023/05/03 08:41:16;;;;;;;0.30;0.30;;;16.70;51.90;;;;;;5014822;28;20210;-68
2023/05/03 08:43:47;;;;;;;0.40;0.40;;;16.80;52.00;;;;;;5032198;28;20700;-68
2023/05/03 08:46:14;;;;;;;0.53;0.53;;;16.90;52.40;;;;;;5031960;28;20201;-67
2023/05/03 08:48:43;;;;;;;0.40;0.40;;;16.90;51.70;;;;;;5032179;28;20285;-68
2023/05/03 08:51:10;;;;;;;0.30;0.30;;;17.10;51.90;;;;;;5017580;28;20277;-68
2023/05/03 08:53:37;;;;;;;0.50;0.50;;;17.10;51.80;;;;;;5032895;28;20210;-68
2023/05/03 08:56:09;;;;;;;0.67;0.67;;;17.30;51.70;;;;;;5032588;28;20281;-68
2023/05/03 08:58:37;;;;;;;0.80;0.80;;;17.20;51.90;;;;;;5032947;28;20203;-68
2023/05/03 09:01:07;;;;;;;0.60;0.60;;;17.30;51.90;;;;;;5031994;28;20245;-68
2023/05/03 09:03:35;;;;;;;0.50;0.50;;;17.30;51.90;;;;;;5021900;28;20231;-68
2023/05/03 09:06:02;;;;;;;0.70;0.70;;;17.30;51.90;;;;;;5031796;28;20202;-68
2023/05/03 09:08:30;;;;;;;0.60;0.60;;;17.30;51.70;;;;;;5012809;28;20256;-68
2023/05/03 09:10:57;;;;;;;0.83;0.80;;;17.40;51.60;;;;;;5031875;28;20285;-69
2023/05/03 09:13:30;;;;;;;1.90;1.03;;;17.40;51.60;;;;;;5031820;28;20256;-69
2023/05/03 09:15:58;;;;;;;1.00;1.00;;;17.60;51.90;;;;;;5030893;28;20215;-69
2023/05/03 09:18:26;;;;;;;1.30;1.20;;;17.70;52.00;;;;;;5030468;28;20196;-69
2023/05/03 09:20:54;;;;;;;1.60;1.50;;;17.80;53.00;;;;;;5012074;28;20281;-69
2023/05/03 09:23:30;;;;;;;1.60;1.50;;;17.90;53.60;;;;;;5020108;28;20203;-68
2023/05/03 09:25:59;;;;;;;1.43;1.33;;;17.90;53.80;;;;;;5021835;28;20232;-68
2023/05/03 09:28:26;;;;;;;1.60;1.50;;;17.80;53.90;;;;;;5024466;28;20191;-69
2023/05/03 09:31:06;;;;;;;2.27;1.90;;;17.80;54.00;;;;;;5026979;28;20197;-68
2023/05/03 09:33:35;;;;;;;1.43;1.37;;;17.90;54.40;;;;;;5021983;28;20276;-69
2023/05/03 09:36:04;;;;;;;1.50;1.40;;;17.80;54.40;;;;;;5029547;28;20245;-69
2023/05/03 09:38:32;;;;;;;1.33;1.20;;;17.80;54.30;;;;;;5031634;28;20190;-70
2023/05/03 09:41:00;;;;;;;1.27;1.20;;;17.80;54.30;;;;;;5030192;28;20202;-68
2023/05/03 09:43:27;;;;;;;0.90;0.90;;;17.80;54.30;;;;;;5023537;28;20559;-67
2023/05/03 09:46:08;;;;;;;1.50;1.40;;;17.80;54.00;;;;;;5024842;28;20235;-69
2023/05/03 09:48:37;;;;;;;2.10;1.23;;;17.70;53.50;;;;;;5023697;28;20187;-67
2023/05/03 09:51:05;;;;;;;0.90;0.90;;;17.70;53.00;;;;;;5028689;28;20233;-67
2023/05/03 09:53:32;;;;;;;1.30;1.20;;;17.60;52.70;;;;;;5027164;28;20226;-67
2023/05/03 09:56:02;;;;;;;1.10;1.00;;;17.60;52.70;;;;;;5022993;28;20269;-67
2023/05/03 09:58:29;;;;;;;1.60;1.00;;;17.60;52.40;;;;;;5021720;28;20188;-68
2023/05/03 10:00:57;;;;;;;0.90;0.90;;;17.60;52.30;;;;;;5028924;28;20202;-67
2023/05/03 10:03:37;;;;;;;1.00;1.00;;;17.70;51.90;;;;;;5028020;28;20315;-68
2023/05/03 10:06:16;;;;;;;1.37;0.80;;;17.70;51.40;;;;;;5027418;28;20257;-68
2023/05/03 10:08:51;;;;;;;1.30;0.90;;;17.70;51.20;;;;;;5027539;28;20199;-68
2023/05/03 10:11:19;;;;;;;0.80;0.80;;;17.70;51.50;;;;;;5027832;28;20190;-68
2023/05/03 10:13:46;;;;;;;0.60;0.60;;;17.70;52.00;;;;;;5024239;28;20266;-68
2023/05/03 10:16:19;;;;;;;1.77;0.80;;;17.70;52.50;;;;;;5027584;28;20210;-67
2023/05/03 10:18:53;;;;;;;0.60;0.60;;;17.70;52.90;;;;;;5023323;28;20239;-68
2023/05/03 10:21:35;;;;;;;1.00;1.00;;;17.80;53.20;;;;;;5011597;28;20202;-68
2023/05/03 10:24:13;;;;;;;1.30;1.20;;;18.00;53.30;;;;;;5016873;28;20199;-69
2023/05/03 10:26:41;;;;;;;1.10;1.00;;;18.00;53.30;;;;;;5017652;28;20724;-69
2023/05/03 10:29:47;;;;;;;1.23;0.73;;;17.90;53.40;;;;;;5021469;28;20857;-69
2023/05/03 10:32:31;;;;;;;1.30;0.80;;;17.70;53.70;;;;;;5016678;28;20206;-68
2023/05/03 10:35:01;;;;;;;1.13;0.90;;;17.60;54.00;;;;;;5025183;28;20191;-69
2023/05/03 10:37:30;;;;;;;0.50;0.50;;;17.40;53.90;;;;;;5028540;28;20194;-69
2023/05/03 10:40:06;;;;;;;0.50;0.50;;;17.20;54.10;;;;;;5029471;28;20704;-68
2023/05/03 10:42:33;;;;;;;0.60;0.60;;;17.20;54.20;;;;;;5026022;28;20186;-68
2023/05/03 10:45:02;;;;;;;0.40;0.40;;;17.20;54.40;;;;;;5026872;28;20244;-68
2023/05/03 10:47:29;;;;;;;0.60;0.60;;;17.30;54.50;;;;;;5027159;28;20191;-68
2023/05/03 10:50:25;;;;;;;0.70;0.70;;;17.40;54.60;;;;;;5029715;28;20265;-69
2023/05/03 10:52:53;;;;;;;0.53;0.53;;;17.60;54.80;;;;;;5028823;28;20650;-68
2023/05/03 10:55:23;;;;;;;0.60;0.60;;;17.80;54.70;;;;;;5028515;28;20632;-68
2023/05/03 10:57:54;;;;;;;0.80;0.50;;;17.90;54.60;;;;;;5028758;28;20295;-68
2023/05/03 11:00:26;;;;;;;0.50;0.50;;;18.00;54.40;;;;;;5026220;28;20195;-68
2023/05/03 11:03:29;;;;;;;0.50;0.50;;;18.20;54.30;;;;;;5022149;28;20199;-67
2023/05/03 11:05:56;;;;;;;0.63;0.53;;;18.30;54.00;;;;;;5018023;28;20252;-68
2023/05/03 11:08:26;;;;;;;0.60;0.60;;;18.50;53.40;;;;;;5025639;28;20194;-68
2023/05/03 11:10:58;;;;;;;0.50;0.50;;;18.60;52.70;;;;;;5024635;28;20194;-68
2023/05/03 11:13:25;;;;;;;0.60;0.60;;;18.70;52.50;;;;;;5023736;28;20201;-69
2023/05/03 11:15:54;;;;;;;0.60;0.60;;;18.80;52.50;;;;;;5021541;28;20226;-68
2023/05/03 11:18:21;;;;;;;0.98;0.70;;;18.80;52.50;;;;;;5023909;28;20200;-68
2023/05/03 11:20:49;;;;;;;0.73;0.60;;;18.80;52.60;;;;;;5024489;28;20220;-68
2023/05/03 11:23:16;;;;;;;0.60;0.60;;;18.90;52.70;;;;;;5021999;28;20660;-70
2023/05/03 11:25:44;;;;;;;0.90;0.70;;;19.00;52.70;;;;;;5029034;28;20640;-68
2023/05/03 11:28:11;;;;;;;0.73;0.73;;;19.10;52.90;;;;;;5022765;28;20206;-68
2023/05/03 11:30:38;;;;;;;1.17;0.70;;;19.10;52.50;;;;;;5029075;28;20281;-68
2023/05/03 11:33:06;;;;;;;0.50;0.50;;;19.10;52.20;;;;;;5021053;28;20354;-68
2023/05/03 11:35:33;;;;;;;0.70;0.70;;;19.10;52.30;;;;;;5023797;28;20673;-68
2023/05/03 11:38:00;;;;;;;1.63;0.90;;;19.20;52.40;;;;;;5023971;28;20209;-68
2023/05/03 11:40:28;;;;;;;0.57;0.50;;;19.20;52.40;;;;;;5016945;28;20206;-68
2023/05/03 11:42:57;;;;;;;0.57;0.50;;;19.30;52.50;;;;;;5030302;28;20240;-68
2023/05/03 11:45:26;;;;;;;2.13;1.10;;;19.40;52.50;;;;;;5022367;28;20198;-69
2023/05/03 11:47:54;;;;;;;0.80;0.80;;;19.50;52.00;;;;;;5021726;28;20232;-69
2023/05/03 11:50:28;;;;;;;1.05;0.55;;;19.40;52.00;;;;;;5029237;28;20664;-67
2023/05/03 11:52:57;;;;;;;2.67;0.80;;;19.50;52.00;;;;;;5002920;28;20237;-67
2023/05/03 11:55:24;;;;;;;0.65;0.65;;;19.50;51.90;;;;;;5025148;28;20204;-68
2023/05/03 11:57:51;;;;;;;0.65;0.60;;;19.60;51.90;;;;;;5023292;28;20197;-68
2023/05/03 12:00:21;;;;;;;1.63;0.80;;;19.40;52.00;;;;;;5025873;28;20201;-68
2023/05/03 12:02:48;;;;;;;2.28;0.90;;;19.40;52.00;;;;;;5027337;28;20208;-68
2023/05/03 12:05:17;;;;;;;1.83;1.20;;;19.30;52.00;;;;;;5029524;28;20204;-68
2023/05/03 12:07:45;;;;;;;1.73;1.00;;;19.30;52.30;;;;;;5027945;28;20646;-68
2023/05/03 12:10:15;;;;;;;3.55;1.20;;;19.20;52.70;;;;;;5029296;28;20236;-68
2023/05/03 12:12:52;;;;;;;2.92;0.80;;;19.10;52.50;;;;;;5027860;28;20248;-67
2023/05/03 12:15:29;;;;;;;1.30;0.90;;;19.10;52.60;;;;;;5020070;28;20220;-68
2023/05/03 12:17:57;;;;;;;2.33;0.68;;;19.00;52.60;;;;;;5025783;28;20269;-68
2023/05/03 12:20:27;;;;;;;1.15;0.98;;;19.10;52.60;;;;;;5026916;28;20197;-68
2023/05/03 12:22:56;;;;;;;2.45;1.05;;;19.20;52.50;;;;;;5022175;28;20225;-68
2023/05/03 12:25:23;;;;;;;2.00;1.10;;;19.20;52.30;;;;;;5029369;28;20275;-68
2023/05/03 12:27:52;;;;;;;2.15;1.17;;;19.20;52.50;;;;;;5024605;28;20205;-68
2023/05/03 12:30:20;;;;;;;2.33;1.00;;;19.20;52.50;;;;;;5028188;28;20206;-68
2023/05/03 12:32:49;;;;;;;0.70;0.70;;;19.10;52.30;;;;;;5022545;28;20258;-67
2023/05/03 12:35:18;;;;;;;0.82;0.82;;;19.00;52.30;;;;;;5025882;28;20690;-69
2023/05/03 12:37:45;;;;;;;1.63;1.00;;;19.00;52.30;;;;;;5028938;28;20767;-68
2023/05/03 12:40:13;;;;;;;1.08;0.63;;;18.90;52.30;;;;;;5029193;28;20256;-68
2023/05/03 12:42:40;;;;;;;0.88;0.60;;;18.80;52.50;;;;;;5029562;28;21285;-68
2023/05/03 12:45:08;;;;;;;0.73;0.70;;;18.70;52.50;;;;;;5028435;28;20587;-69
2023/05/03 12:47:36;;;;;;;1.10;0.60;;;18.60;52.50;;;;;;5028705;28;20246;-68
2023/05/03 12:50:06;;;;;;;0.90;0.82;;;18.50;52.70;;;;;;5028598;28;20286;-68
2023/05/03 12:52:35;;;;;;;2.60;0.85;;;18.50;52.80;;;;;;5028272;28;20212;-68
2023/05/03 12:55:03;;;;;;;0.87;0.70;;;18.50;52.80;;;;;;5028569;28;20625;-69
2023/05/03 12:57:30;;;;;;;0.95;0.60;;;18.40;52.90;;;;;;5029378;28;20204;-69